Orlando Sanford International Airport Orlando US
ICAO: KSFB
IATA: SFB
Category: Large
Scheduled Services: Yes

Elevation: 55 ft
TransAlt. 18000 ft.

Airport Communications:
APP/DEP:119.775
ATIS:125.975
CLNC DEL:121.35
CTAF:120.3
GND:121.35
SANFORD TWR:120.3

KSFB Zoom In..

Runways:

(A) RW 09C length 3578 ft width 75 ft
---- / hdg 95

(B) RW 09L length 11000 ft width 150 ft
ILS 108.90 / hdg 95

(C) RW 09R length 6647 ft width 75 ft
ILS 111.55 / hdg 95

(D) RW 18 length 6002 ft width 150 ft
---- / hdg 185

(E) RW 27C length 3578 ft width 75 ft
---- / hdg 275

(F) RW 27L length 6647 ft width 75 ft
---- / hdg 275

(G) RW 27R length 11000 ft width 150 ft
ILS 110.15 / hdg 275

(H) RW 36 length 6002 ft width 150 ft
---- / hdg 5

Location; KSFB
Day. 22 / Time. 00.53 Zulu
* Altimeter: 30.17
* Temperature: 21° c. 69.8°f.
* Wind from: 080° Speed 05 kn.
Dewpoint: 19° c.
Visibility: 9 Statute Miles.
Clouds: Few 3300 ft.
Clouds: Few 4800 ft.
Clouds: Overcast 6500 ft.

KSFB 220053Z 08005KT 9SM FEW033 FEW048 OVC065 21/19 A3017 RMK AO2 RAE19 SLP215 P0007 T02110194


Wind From 080°
Speed 05 kn.

  YouTube Music Video
 
jpsmedia.com for Web Design  worldairports.se 2018   terms of use